Wien Ottakring/Starchant
Wetterdaten: aktuell Dienstag, 29.11.2022 23:10
Datum Zeit Temp. I. Temp. A. Feuchte I. Feuchte A. Luftdruck Regen Wind Richtung Richtung Taupunkt Windchill Windben Empfang
29.11.2022 23:10 21,1 C 1,5 C 47 % 93 % 1024,1 hPa 0,0 l/m 0,0 km/h N 0 0,5 C 1,5 C 0,0 km/h 84,21 %
29.11.2022 22:10 21,3 C 1,4 C 48 % 93 % 1024,2 hPa 0,0 l/m 0,0 km/h SW 225 0,4 C 1,4 C 3,2 km/h 83,33 %
29.11.2022 21:10 21,4 C 1,3 C 49 % 93 % 1024,0 hPa 0,0 l/m 0,0 km/h SO 135 0,3 C 1,3 C 3,2 km/h 83,33 %
29.11.2022 20:10 21,4 C 1,4 C 49 % 92 % 1023,8 hPa 0,0 l/m 0,0 km/h S-SW 202 0,2 C 1,4 C 1,6 km/h 85,09 %
29.11.2022 19:10 21,4 C 1,9 C 49 % 91 % 1023,6 hPa 0,0 l/m 0,0 km/h SW 225 0,6 C 1,9 C 1,6 km/h 83,33 %
29.11.2022 18:10 21,3 C 2,2 C 49 % 91 % 1023,1 hPa 0,0 l/m 1,6 km/h S-SO 157 0,9 C 2,2 C 6,4 km/h 82,46 %
29.11.2022 17:10 21,3 C 2,8 C 50 % 89 % 1022,8 hPa 0,0 l/m 1,6 km/h S-SO 157 1,2 C 2,8 C 6,4 km/h 84,21 %
29.11.2022 16:10 21,3 C 3,3 C 50 % 87 % 1022,6 hPa 0,0 l/m 3,2 km/h S-SO 157 1,3 C 3,3 C 8,0 km/h 83,33 %
29.11.2022 15:10 21,2 C 3,7 C 50 % 82 % 1022,4 hPa 0,0 l/m 6,4 km/h S-SW 202 0,9 C 2,1 C 17,7 km/h 84,21 %
29.11.2022 14:10 21,2 C 3,9 C 50 % 81 % 1022,0 hPa 0,0 l/m 8,0 km/h S-SO 157 0,9 C 1,8 C 16,1 km/h 81,58 %
29.11.2022 13:10 21,1 C 3,4 C 50 % 85 % 1022,0 hPa 0,0 l/m 6,4 km/h S-SO 157 1,1 C 1,7 C 12,9 km/h 85,09 %
29.11.2022 12:10 20,9 C 3,0 C 50 % 87 % 1021,9 hPa 0,0 l/m 6,4 km/h S-SO 157 1,1 C 1,3 C 19,3 km/h 82,46 %
29.11.2022 11:10 20,7 C 2,7 C 50 % 89 % 1022,1 hPa 0,0 l/m 6,4 km/h S-SO 157 1,1 C 0,9 C 20,9 km/h 83,33 %
29.11.2022 10:10 20,3 C 2,4 C 50 % 90 % 1022,2 hPa 0,0 l/m 6,4 km/h S-SO 157 0,9 C 0,6 C 14,5 km/h 83,33 %
29.11.2022 09:10 19,9 C 2,3 C 50 % 91 % 1021,9 hPa 0,0 l/m 4,8 km/h S-SO 157 1,0 C 1,1 C 12,9 km/h 81,58 %
29.11.2022 08:10 19,6 C 1,9 C 49 % 92 % 1021,4 hPa 0,0 l/m 4,8 km/h S-SO 157 0,7 C 0,7 C 9,7 km/h 79,82 %
29.11.2022 07:10 19,3 C 1,7 C 48 % 92 % 1021,1 hPa 0,0 l/m 4,8 km/h S 180 0,5 C 0,4 C 9,7 km/h 78,95 %
29.11.2022 06:10 19,4 C 1,8 C 47 % 89 % 1020,7 hPa 0,0 l/m 3,2 km/h S-SO 157 0,2 C 1,8 C 6,4 km/h 80,70 %
29.11.2022 05:10 19,7 C 1,6 C 47 % 90 % 1020,3 hPa 0,0 l/m 3,2 km/h S-SO 157 0,1 C 1,6 C 14,5 km/h 82,46 %
29.11.2022 04:10 19,8 C 1,6 C 47 % 90 % 1020,1 hPa 0,0 l/m 3,2 km/h S-SO 157 0,1 C 1,6 C 9,7 km/h 85,09 %
29.11.2022 03:10 20,1 C 1,7 C 47 % 90 % 1019,8 hPa 0,0 l/m 4,8 km/h S-SO 157 0,2 C 0,4 C 8,0 km/h 83,33 %
29.11.2022 02:10 20,4 C 1,8 C 47 % 91 % 1019,9 hPa 0,0 l/m 3,2 km/h S-SO 157 0,5 C 1,8 C 9,7 km/h 82,46 %
29.11.2022 01:10 20,7 C 1,9 C 47 % 90 % 1019,8 hPa 0,0 l/m 4,8 km/h S-SO 157 0,4 C 0,7 C 11,3 km/h 84,21 %
29.11.2022 00:10 21,1 C 2,1 C 47 % 89 % 1020,2 hPa 0,0 l/m 4,8 km/h S-SO 157 0,5 C 0,9 C 17,7 km/h 83,33 %
29.11.2022 00:00 21,2 C 2,1 C 47 % 89 % 1020,2 hPa 0,0 l/m 3,2 km/h S 180 0,5 C 2,1 C 12,9 km/h 85,09 %
_ Min-Zeit 06:45 20:25 00:00 14:30 02:55 - 17:15 - - 03:50 03:50 19:15 13:20
Minimum _ 19,3 C 1,2 C 47 % 80 % 1019,7 hPa - 0,0 km/h - - 0,1 C -0,3 C 0,0 km/h 78,07 %
_ Max-Zeit 18:25 14:10 10:40 22:00 22:25 00:00 12:00 - - 16:20 16:00 09:45 02:40
Maximum _ 21,4 C 4,0 C 51 % 94 % 1024,3 hPa 0,0 l/m 9,7 km/h
S-SO
- - 1,4 C 3,4 C 24,1 km/h
SW
86,84 %
Durchschnitt _ 20,7 C 2,2 C 49 % 89 % 1021,9 hPa #0,0 l/m 3,9 km/h S-SO - 0,7 C 1,4 C 10,9 km/h 83,60 %
Davis Vantage Vue